Time;durP1;ratioP1;P1;durP2;ratioP2;P2;SDS_P1;SDS_P2;PMS_P1;PMS_P2;Temp;Humidity;BMP_temperature;BMP_pressure;BME280_temperature;BME280_humidity;BME280_pressure;Samples;Min_cycle;Max_cycle;Signal;HPM_P1;HPM_P2
2021/07/22 00:00:10;;;;;;;10.35;5.90;;;15.10;82.30;;;;;;4981567;28;20042;-71
2021/07/22 00:02:36;;;;;;;9.15;5.47;;;15.00;82.50;;;;;;4972349;28;20039;-74
2021/07/22 00:05:02;;;;;;;9.57;5.57;;;15.10;82.60;;;;;;4995150;28;20546;-73
2021/07/22 00:07:29;;;;;;;10.57;5.35;;;15.20;82.10;;;;;;4979985;28;20045;-74
2021/07/22 00:09:54;;;;;;;8.65;5.03;;;15.20;82.20;;;;;;4980687;28;20041;-74
2021/07/22 00:12:20;;;;;;;13.20;5.97;;;15.20;82.00;;;;;;4977872;28;20533;-74
2021/07/22 00:14:45;;;;;;;10.73;6.15;;;15.10;82.30;;;;;;4980765;28;20089;-73
2021/07/22 00:17:11;;;;;;;9.13;5.13;;;15.00;82.90;;;;;;4979318;28;20400;-73
2021/07/22 00:19:37;;;;;;;9.27;5.50;;;14.90;82.80;;;;;;4979375;28;20441;-73
2021/07/22 00:22:03;;;;;;;6.90;4.68;;;14.90;82.30;;;;;;4982118;28;20109;-73
2021/07/22 00:24:29;;;;;;;8.95;5.15;;;14.80;82.00;;;;;;4979093;28;20551;-73
2021/07/22 00:26:55;;;;;;;12.07;5.07;;;14.80;83.00;;;;;;4981226;28;20034;-73
2021/07/22 00:29:21;;;;;;;8.07;4.85;;;14.70;82.10;;;;;;4980926;28;20038;-73
2021/07/22 00:31:47;;;;;;;10.68;5.05;;;14.60;82.20;;;;;;4977345;28;20042;-73
2021/07/22 00:34:13;;;;;;;7.57;5.30;;;14.50;82.40;;;;;;4978720;28;20146;-72
2021/07/22 00:36:39;;;;;;;8.07;4.72;;;14.50;82.80;;;;;;4976056;28;20022;-73
2021/07/22 00:39:04;;;;;;;8.75;5.03;;;14.50;82.90;;;;;;4981055;28;20417;-72
2021/07/22 00:41:30;;;;;;;9.02;5.45;;;14.60;83.70;;;;;;4980811;28;20022;-72
2021/07/22 00:43:56;;;;;;;8.88;5.53;;;14.40;84.30;;;;;;4978086;28;21097;-72
2021/07/22 00:46:22;;;;;;;9.20;5.90;;;14.30;84.80;;;;;;4980870;28;20121;-72
2021/07/22 00:48:48;;;;;;;10.63;6.00;;;14.20;85.70;;;;;;4977906;28;20035;-73
2021/07/22 00:51:13;;;;;;;10.15;5.55;;;14.30;85.40;;;;;;4979017;28;20041;-72
2021/07/22 00:53:39;;;;;;;11.60;5.65;;;14.30;85.60;;;;;;4974751;28;20114;-73
2021/07/22 00:56:05;;;;;;;9.77;5.30;;;14.30;85.80;;;;;;4981204;28;20027;-73
2021/07/22 00:58:31;;;;;;;8.63;5.20;;;14.20;86.10;;;;;;4977503;28;20050;-73
2021/07/22 01:00:57;;;;;;;9.70;5.30;;;14.30;86.00;;;;;;4978760;28;20050;-72
2021/07/22 01:03:23;;;;;;;10.18;5.38;;;14.40;85.40;;;;;;4978763;28;20034;-73
2021/07/22 01:05:48;;;;;;;9.80;5.63;;;14.40;84.70;;;;;;4976128;28;20036;-73
2021/07/22 01:08:14;;;;;;;10.30;5.75;;;14.50;84.30;;;;;;4976772;28;20038;-73
2021/07/22 01:10:40;;;;;;;10.73;5.25;;;14.40;84.30;;;;;;4973777;28;20030;-73
2021/07/22 01:13:05;;;;;;;8.77;5.60;;;14.40;83.70;;;;;;4972806;28;20046;-72
2021/07/22 01:15:32;;;;;;;8.75;5.57;;;14.40;83.80;;;;;;4973461;28;20081;-73
2021/07/22 01:17:58;;;;;;;10.23;5.35;;;14.40;83.60;;;;;;4974545;28;20045;-72
2021/07/22 01:20:25;;;;;;;10.15;5.78;;;14.40;83.50;;;;;;4974026;28;20092;-73
2021/07/22 01:22:53;;;;;;;12.23;5.60;;;14.40;83.00;;;;;;4971784;28;20033;-73
2021/07/22 01:25:19;;;;;;;8.87;5.83;;;14.40;83.20;;;;;;4975176;28;20043;-73
2021/07/22 01:27:45;;;;;;;10.82;5.93;;;14.30;83.70;;;;;;4971511;28;20494;-74
2021/07/22 01:30:12;;;;;;;7.63;4.60;;;14.20;84.40;;;;;;4971103;28;20066;-73
2021/07/22 01:32:38;;;;;;;5.50;3.65;;;14.20;82.40;;;;;;4971677;28;20417;-74
2021/07/22 01:35:05;;;;;;;9.25;5.05;;;14.00;82.10;;;;;;4972733;28;20039;-73
2021/07/22 01:37:31;;;;;;;8.95;4.65;;;14.00;83.40;;;;;;4974912;28;20030;-72
2021/07/22 01:39:56;;;;;;;8.90;4.88;;;14.10;83.60;;;;;;4972230;28;20718;-72
2021/07/22 01:42:22;;;;;;;9.10;5.03;;;14.10;83.40;;;;;;4970874;28;20039;-74
2021/07/22 01:44:48;;;;;;;7.15;4.07;;;14.00;83.50;;;;;;4967474;28;20038;-73
2021/07/22 01:47:14;;;;;;;8.55;5.32;;;14.00;83.40;;;;;;4971981;28;20038;-73
2021/07/22 01:49:40;;;;;;;9.25;5.53;;;14.00;84.00;;;;;;4976459;28;20492;-73
2021/07/22 01:52:06;;;;;;;10.40;5.38;;;14.00;84.10;;;;;;4978785;28;20023;-75
2021/07/22 01:54:32;;;;;;;10.38;5.38;;;13.90;84.50;;;;;;4976810;28;20030;-73
2021/07/22 01:56:59;;;;;;;9.07;5.20;;;13.90;84.60;;;;;;4974676;28;20520;-73
2021/07/22 01:59:25;;;;;;;9.85;5.55;;;13.90;84.70;;;;;;4974241;28;20026;-74
2021/07/22 02:01:51;;;;;;;9.02;5.40;;;13.80;86.00;;;;;;4973892;28;20067;-73
2021/07/22 02:04:17;;;;;;;9.15;4.95;;;13.80;85.10;;;;;;4974689;28;20034;-73
2021/07/22 02:06:42;;;;;;;8.15;4.38;;;13.90;84.20;;;;;;4976892;28;20046;-73
2021/07/22 02:09:08;;;;;;;5.82;3.60;;;13.80;84.10;;;;;;4974683;28;20045;-74
2021/07/22 02:11:34;;;;;;;6.53;4.00;;;13.80;81.30;;;;;;4976378;28;20027;-73
2021/07/22 02:13:59;;;;;;;5.47;3.78;;;13.50;83.00;;;;;;4974960;28;20134;-74
2021/07/22 02:16:25;;;;;;;6.70;3.90;;;13.50;84.10;;;;;;4978631;28;20257;-72
2021/07/22 02:18:51;;;;;;;4.55;3.00;;;13.40;82.30;;;;;;4979198;28;20767;-73
2021/07/22 02:21:17;;;;;;;4.60;2.63;;;13.20;82.00;;;;;;4976091;28;20034;-73
2021/07/22 02:23:42;;;;;;;4.80;2.70;;;13.00;83.50;;;;;;4976336;28;20035;-74
2021/07/22 02:26:09;;;;;;;9.07;4.85;;;13.20;84.20;;;;;;4974610;28;20066;-73
2021/07/22 02:28:35;;;;;;;9.65;5.63;;;13.20;86.10;;;;;;4977156;28;20026;-73
2021/07/22 02:31:02;;;;;;;10.50;5.85;;;13.30;87.90;;;;;;4973669;28;20494;-74
2021/07/22 02:33:28;;;;;;;9.73;5.40;;;13.40;88.20;;;;;;4976307;28;20042;-73
2021/07/22 02:35:57;;;;;;;10.95;5.45;;;13.40;87.50;;;;;;4977388;28;20018;-74
2021/07/22 02:38:23;;;;;;;8.98;5.65;;;13.50;87.80;;;;;;4974944;28;21121;-73
2021/07/22 02:40:48;;;;;;;14.20;6.28;;;13.60;87.30;;;;;;4976543;28;20169;-74
2021/07/22 02:43:14;;;;;;;13.70;5.25;;;13.60;86.90;;;;;;4976363;28;20584;-74
2021/07/22 02:45:39;;;;;;;8.70;5.32;;;13.50;87.00;;;;;;4978120;28;20030;-73
2021/07/22 02:48:06;;;;;;;9.18;5.68;;;13.50;86.00;;;;;;4977794;28;20042;-73
2021/07/22 02:50:35;;;;;;;8.73;5.28;;;13.60;86.10;;;;;;4974695;28;20105;-74
2021/07/22 02:53:04;;;;;;;9.40;5.30;;;13.50;86.40;;;;;;4976716;28;20050;-73
2021/07/22 02:55:30;;;;;;;8.68;4.85;;;13.60;86.00;;;;;;4973901;28;20133;-73
2021/07/22 02:57:55;;;;;;;7.95;5.63;;;13.60;85.20;;;;;;4975026;28;20034;-73
2021/07/22 03:00:22;;;;;;;7.10;4.60;;;13.40;85.60;;;;;;4974699;28;20089;-73
2021/07/22 03:02:47;;;;;;;7.53;4.70;;;13.40;85.70;;;;;;4975577;28;21051;-73
2021/07/22 03:05:13;;;;;;;8.32;4.57;;;13.30;85.70;;;;;;4973962;28;20106;-74
2021/07/22 03:07:39;;;;;;;7.57;4.30;;;13.30;85.40;;;;;;4974807;28;20122;-73
2021/07/22 03:10:05;;;;;;;4.60;3.25;;;13.20;85.30;;;;;;4977485;28;20030;-74
2021/07/22 03:12:31;;;;;;;6.10;4.03;;;13.10;84.10;;;;;;4972977;28;20030;-73
2021/07/22 03:14:57;;;;;;;8.82;4.60;;;13.10;84.80;;;;;;4978629;28;20386;-73
2021/07/22 03:17:22;;;;;;;10.05;5.15;;;13.10;86.30;;;;;;4976025;28;20026;-74
2021/07/22 03:19:48;;;;;;;9.32;5.47;;;13.10;87.40;;;;;;4976675;28;20035;-73
2021/07/22 03:22:15;;;;;;;8.27;5.22;;;13.20;87.10;;;;;;4973853;28;20034;-74
2021/07/22 03:24:41;;;;;;;11.52;5.68;;;13.20;87.20;;;;;;4974683;28;20053;-73
2021/07/22 03:27:06;;;;;;;7.80;5.50;;;13.30;86.80;;;;;;4977546;28;20106;-73
2021/07/22 03:29:33;;;;;;;11.18;5.32;;;13.20;86.30;;;;;;4973639;28;20057;-73
2021/07/22 03:32:02;;;;;;;9.57;6.25;;;13.20;86.90;;;;;;4979099;28;20038;-74
2021/07/22 03:34:27;;;;;;;10.05;5.65;;;13.10;87.70;;;;;;4970128;28;20026;-72
2021/07/22 03:36:53;;;;;;;9.02;5.38;;;13.20;88.10;;;;;;4981154;28;20425;-73
2021/07/22 03:39:19;;;;;;;9.30;5.60;;;13.30;87.70;;;;;;4977290;28;20038;-73
2021/07/22 03:41:48;;;;;;;8.45;4.82;;;13.40;86.80;;;;;;4979548;28;20401;-74
2021/07/22 03:44:16;;;;;;;10.38;4.85;;;13.30;86.10;;;;;;4975350;28;20034;-73
2021/07/22 03:46:43;;;;;;;;;;;13.40;85.80;;;;;;4979052;28;21196;-73
2021/07/22 03:49:08;;;;;;;9.25;5.72;;;13.30;86.00;;;;;;4976192;28;19913;-73
2021/07/22 03:51:34;;;;;;;9.45;5.40;;;13.20;86.30;;;;;;4978951;28;20723;-73
2021/07/22 03:54:00;;;;;;;7.57;4.03;;;13.30;86.00;;;;;;4976638;28;20460;-73
2021/07/22 03:56:26;;;;;;;6.20;3.72;;;13.30;85.40;;;;;;4975539;28;20101;-72
2021/07/22 03:58:55;;;;;;;5.75;3.95;;;13.20;83.60;;;;;;4980768;28;20034;-74
2021/07/22 04:01:20;;;;;;;6.45;3.78;;;13.00;84.10;;;;;;4975069;28;20045;-72
2021/07/22 04:03:46;;;;;;;5.10;3.95;;;13.10;85.10;;;;;;4972934;28;20034;-72
2021/07/22 04:06:12;;;;;;;9.98;5.63;;;13.20;85.10;;;;;;4980820;28;20045;-70
2021/07/22 04:08:38;;;;;;;9.57;5.07;;;13.30;86.60;;;;;;4975100;28;20023;-73
2021/07/22 04:11:06;;;;;;;9.38;5.30;;;13.30;87.10;;;;;;4977933;28;20033;-73
2021/07/22 04:13:32;;;;;;;8.00;4.90;;;13.40;87.00;;;;;;4975640;28;20080;-74
2021/07/22 04:16:02;;;;;;;8.82;5.15;;;13.50;86.20;;;;;;4977268;28;20429;-74
2021/07/22 04:18:28;;;;;;;9.50;5.22;;;13.70;86.00;;;;;;4975789;28;20540;-74
2021/07/22 04:20:53;;;;;;;7.47;4.50;;;13.80;85.60;;;;;;4976123;28;20035;-73
2021/07/22 04:23:19;;;;;;;10.80;5.10;;;13.80;84.80;;;;;;4975764;28;20026;-74
2021/07/22 04:25:46;;;;;;;8.95;5.15;;;13.90;84.70;;;;;;4973749;28;20039;-74
2021/07/22 04:28:12;;;;;;;8.07;4.93;;;14.00;84.80;;;;;;4980311;28;20027;-74
2021/07/22 04:30:38;;;;;;;10.88;5.20;;;14.00;84.70;;;;;;4970597;28;20063;-74
2021/07/22 04:33:04;;;;;;;11.48;5.85;;;14.00;85.20;;;;;;4978212;28;20022;-74
2021/07/22 04:35:30;;;;;;;7.45;4.60;;;13.90;85.30;;;;;;4974657;28;20053;-74
2021/07/22 04:37:56;;;;;;;9.25;5.03;;;14.10;85.60;;;;;;4977395;28;21818;-74
2021/07/22 04:40:22;;;;;;;9.40;5.15;;;14.20;85.00;;;;;;4977165;28;20037;-74
2021/07/22 04:42:47;;;;;;;9.52;5.57;;;14.10;84.90;;;;;;4973307;28;20703;-73
2021/07/22 04:45:13;;;;;;;8.48;5.05;;;14.20;84.70;;;;;;4971465;28;20049;-74
2021/07/22 04:47:39;;;;;;;10.48;5.90;;;14.20;84.50;;;;;;4978223;28;20026;-74
2021/07/22 04:50:06;;;;;;;10.80;6.35;;;14.30;84.60;;;;;;4976229;28;20053;-73
2021/07/22 04:52:31;;;;;;;9.05;5.53;;;14.40;84.80;;;;;;4974584;28;20026;-73
2021/07/22 04:54:57;;;;;;;9.80;5.50;;;14.50;84.70;;;;;;4975308;28;20401;-74
2021/07/22 04:57:23;;;;;;;9.45;6.10;;;14.50;84.80;;;;;;4974110;28;20041;-74
2021/07/22 04:59:49;;;;;;;8.50;5.75;;;14.50;84.90;;;;;;4972205;28;20117;-73
2021/07/22 05:02:19;;;;;;;12.20;6.22;;;14.60;85.00;;;;;;4975073;28;20039;-74
2021/07/22 05:04:45;;;;;;;14.20;6.07;;;14.70;86.00;;;;;;4976798;28;20034;-74
2021/07/22 05:07:11;;;;;;;9.75;5.97;;;14.80;85.00;;;;;;4978428;28;20026;-74
2021/07/22 05:09:38;;;;;;;10.18;6.15;;;14.90;85.60;;;;;;4978778;28;20027;-73
2021/07/22 05:12:07;;;;;;;10.20;6.25;;;14.90;85.00;;;;;;4972504;28;20928;-73
2021/07/22 05:14:33;;;;;;;9.70;6.45;;;15.00;84.20;;;;;;4976679;28;20027;-74
2021/07/22 05:16:58;;;;;;;12.20;6.28;;;15.00;84.10;;;;;;4974870;28;20097;-74
2021/07/22 05:19:24;;;;;;;11.63;6.82;;;15.10;84.10;;;;;;4969538;28;20509;-73
2021/07/22 05:21:50;;;;;;;12.93;6.35;;;15.10;84.10;;;;;;4976728;28;20112;-73
2021/07/22 05:24:15;;;;;;;10.98;6.20;;;15.20;83.60;;;;;;4975800;28;20233;-74
2021/07/22 05:26:41;;;;;;;11.55;6.65;;;15.30;83.40;;;;;;4982405;28;20165;-73
2021/07/22 05:29:07;;;;;;;11.48;6.70;;;15.40;84.60;;;;;;4975051;28;20049;-73
2021/07/22 05:31:33;;;;;;;13.73;6.90;;;15.40;84.60;;;;;;4978829;28;20034;-74
2021/07/22 05:34:00;;;;;;;10.55;6.18;;;15.40;84.40;;;;;;4976466;28;20090;-73
2021/07/22 05:36:26;;;;;;;13.95;7.43;;;15.50;84.60;;;;;;4976484;28;20046;-74
2021/07/22 05:38:51;;;;;;;14.02;8.15;;;15.60;85.20;;;;;;4977003;28;20065;-73
2021/07/22 05:41:17;;;;;;;14.00;7.78;;;15.70;84.60;;;;;;4976592;28;21630;-74
2021/07/22 05:43:43;;;;;;;17.23;7.43;;;15.80;83.80;;;;;;4977531;28;20136;-74
2021/07/22 05:46:09;;;;;;;14.57;7.65;;;15.80;83.70;;;;;;4974701;28;20112;-74
2021/07/22 05:48:35;;;;;;;14.95;8.77;;;15.90;83.80;;;;;;4979170;28;20031;-73
2021/07/22 05:51:02;;;;;;;16.90;8.20;;;16.00;83.20;;;;;;4975567;28;20416;-74
2021/07/22 05:53:28;;;;;;;15.55;8.00;;;16.00;82.70;;;;;;4977185;28;20450;-77
2021/07/22 05:56:00;;;;;;;13.52;8.32;;;16.00;82.40;;;;;;4975305;28;20061;-74
2021/07/22 05:58:26;;;;;;;15.27;8.15;;;16.00;84.00;;;;;;4978477;28;20034;-74
2021/07/22 06:00:53;;;;;;;16.63;8.68;;;16.10;83.20;;;;;;4982687;28;20102;-71
2021/07/22 06:03:19;;;;;;;15.00;7.85;;;16.10;83.80;;;;;;4984641;28;20109;-71
2021/07/22 06:05:45;;;;;;;14.55;8.20;;;16.20;85.60;;;;;;4982277;28;20049;-74
2021/07/22 06:08:11;;;;;;;16.52;8.77;;;16.30;84.10;;;;;;4980924;28;20035;-75
2021/07/22 06:10:38;;;;;;;15.50;9.02;;;16.40;83.80;;;;;;4983112;28;20548;-72
2021/07/22 06:13:04;;;;;;;15.82;8.55;;;16.50;83.80;;;;;;4977219;28;20073;-75
2021/07/22 06:15:39;;;;;;;15.85;9.32;;;16.60;85.90;;;;;;4985054;28;20027;-71
2021/07/22 06:18:05;;;;;;;15.43;9.18;;;16.60;84.70;;;;;;4977388;28;20413;-74
2021/07/22 06:20:39;;;;;;;18.60;9.48;;;16.70;86.10;;;;;;4977317;28;20042;-75
2021/07/22 06:23:05;;;;;;;18.15;9.88;;;16.80;85.80;;;;;;4969375;28;20032;-75
2021/07/22 06:25:31;;;;;;;17.83;9.52;;;16.80;84.90;;;;;;4978595;28;20109;-75
2021/07/22 06:27:57;;;;;;;19.13;9.85;;;16.80;83.90;;;;;;4976534;28;20504;-73
2021/07/22 06:30:23;;;;;;;16.55;9.32;;;16.90;84.60;;;;;;4977921;28;20030;-73
2021/07/22 06:32:49;;;;;;;18.95;9.77;;;17.00;85.70;;;;;;4973285;28;20023;-73
2021/07/22 06:35:14;;;;;;;19.13;10.80;;;17.10;85.60;;;;;;4982870;28;20057;-73
2021/07/22 06:37:47;;;;;;;22.60;10.88;;;17.20;86.70;;;;;;4984792;28;20034;-74
2021/07/22 06:40:14;;;;;;;19.10;10.35;;;17.20;84.80;;;;;;4978168;28;20053;-73
2021/07/22 06:42:40;;;;;;;18.98;9.77;;;17.30;84.40;;;;;;4983801;28;20281;-72
2021/07/22 06:45:10;;;;;;;24.67;11.63;;;17.30;85.60;;;;;;4981010;28;20105;-74
2021/07/22 06:47:39;;;;;;;19.33;11.50;;;17.50;85.90;;;;;;4977304;28;20039;-74
2021/07/22 06:50:10;;;;;;;18.67;11.30;;;17.60;84.50;;;;;;4980372;28;20033;-74
2021/07/22 06:52:37;;;;;;;18.55;11.40;;;17.70;83.10;;;;;;4998504;28;21424;-73
2021/07/22 06:55:05;;;;;;;21.27;11.00;;;17.70;83.10;;;;;;4975413;28;20065;-74
2021/07/22 06:57:30;;;;;;;29.85;12.05;;;17.80;84.20;;;;;;4987511;28;20062;-75
2021/07/22 06:59:56;;;;;;;28.00;12.10;;;17.80;81.90;;;;;;4987544;28;20104;-75
2021/07/22 07:02:22;;;;;;;25.13;12.35;;;17.90;81.80;;;;;;4980045;28;20035;-73
2021/07/22 07:04:48;;;;;;;24.77;11.93;;;18.00;83.70;;;;;;4976573;28;20026;-74
2021/07/22 07:07:16;;;;;;;22.65;11.65;;;18.10;82.50;;;;;;4983078;28;20028;-75
2021/07/22 07:09:42;;;;;;;19.67;10.57;;;18.20;84.20;;;;;;4985309;28;20023;-74
2021/07/22 07:12:09;;;;;;;21.33;11.07;;;18.30;80.60;;;;;;4978915;28;20049;-74
2021/07/22 07:14:35;;;;;;;17.50;10.32;;;18.50;80.50;;;;;;4976700;28;20050;-73
2021/07/22 07:17:00;;;;;;;21.75;11.63;;;18.50;79.70;;;;;;4985805;28;20599;-73
2021/07/22 07:19:26;;;;;;;18.30;10.20;;;18.60;82.10;;;;;;4977965;28;20026;-73
2021/07/22 07:21:52;;;;;;;20.88;10.18;;;18.80;79.50;;;;;;4984202;28;20651;-74
2021/07/22 07:24:17;;;;;;;21.73;9.80;;;18.80;79.50;;;;;;4979075;28;20175;-73
2021/07/22 07:26:43;;;;;;;21.67;11.63;;;19.00;79.50;;;;;;4983325;28;20038;-74
2021/07/22 07:29:09;;;;;;;21.75;10.18;;;19.00;79.50;;;;;;4983247;28;20030;-73
2021/07/22 07:31:35;;;;;;;21.63;9.65;;;19.10;79.20;;;;;;4981516;28;20042;-73
2021/07/22 07:34:04;;;;;;;16.98;9.95;;;19.20;77.90;;;;;;4982301;28;20033;-71
2021/07/22 07:36:29;;;;;;;20.98;11.05;;;19.30;78.90;;;;;;4975120;28;20026;-74
2021/07/22 07:38:55;;;;;;;16.60;9.07;;;19.50;78.90;;;;;;4978616;28;20028;-74
2021/07/22 07:41:21;;;;;;;18.88;10.27;;;19.50;76.70;;;;;;4982033;28;20109;-73
2021/07/22 07:43:46;;;;;;;20.38;9.98;;;19.60;76.60;;;;;;4979304;28;20034;-75
2021/07/22 07:46:12;;;;;;;16.92;8.32;;;19.70;77.40;;;;;;4972439;28;20030;-74
2021/07/22 07:48:38;;;;;;;17.70;8.98;;;19.80;75.30;;;;;;4973972;28;20041;-74
2021/07/22 07:51:05;;;;;;;16.63;8.50;;;19.90;76.10;;;;;;4974460;28;20034;-74
2021/07/22 07:53:31;;;;;;;15.53;9.23;;;20.10;75.90;;;;;;4981668;28;20508;-74
2021/07/22 07:55:57;;;;;;;16.75;8.73;;;20.20;74.10;;;;;;4974561;28;20030;-74
2021/07/22 07:58:23;;;;;;;18.05;8.35;;;20.30;74.50;;;;;;4978545;28;20050;-74
2021/07/22 08:00:48;;;;;;;20.83;9.00;;;20.40;74.40;;;;;;4988075;28;20034;-72
2021/07/22 08:03:21;;;;;;;18.38;9.30;;;20.40;73.10;;;;;;4978676;28;20032;-74
2021/07/22 08:05:52;;;;;;;15.55;8.82;;;20.60;73.80;;;;;;4975494;28;20101;-73
2021/07/22 08:08:18;;;;;;;15.82;8.10;;;20.70;72.20;;;;;;4976784;28;20038;-73
2021/07/22 08:10:44;;;;;;;19.38;8.85;;;20.80;72.30;;;;;;4974914;28;20487;-73
2021/07/22 08:13:14;;;;;;;13.55;7.90;;;20.90;71.70;;;;;;4978576;28;20033;-73
2021/07/22 08:15:43;;;;;;;19.23;8.85;;;21.00;73.10;;;;;;4972694;28;20023;-74
2021/07/22 08:18:10;;;;;;;14.93;8.15;;;21.10;71.60;;;;;;4975267;28;20464;-73
2021/07/22 08:20:36;;;;;;;14.13;8.13;;;21.20;70.70;;;;;;4973954;28;20645;-73
2021/07/22 08:23:03;;;;;;;16.75;8.32;;;21.40;69.20;;;;;;4978180;28;20036;-73
2021/07/22 08:25:28;;;;;;;15.77;8.90;;;21.50;70.00;;;;;;4973441;28;20058;-73
2021/07/22 08:27:54;;;;;;;16.98;9.18;;;21.50;68.30;;;;;;4976936;28;20148;-73
2021/07/22 08:30:20;;;;;;;15.90;9.07;;;21.60;69.20;;;;;;4973785;28;20054;-73
2021/07/22 08:32:46;;;;;;;15.05;8.63;;;21.70;68.80;;;;;;4973753;28;20027;-75
2021/07/22 08:35:12;;;;;;;18.25;9.00;;;21.70;68.30;;;;;;4971773;28;20025;-73
2021/07/22 08:37:38;;;;;;;19.48;9.40;;;21.90;67.20;;;;;;4981244;28;20018;-74
2021/07/22 08:40:05;;;;;;;17.20;8.60;;;22.00;68.50;;;;;;4973992;28;20037;-74
2021/07/22 08:42:35;;;;;;;16.83;9.18;;;22.10;66.30;;;;;;4975273;28;20026;-75
2021/07/22 08:45:03;;;;;;;20.40;9.60;;;22.20;66.20;;;;;;4974218;28;20547;-74
2021/07/22 08:47:29;;;;;;;14.65;7.82;;;22.30;65.50;;;;;;4979034;28;20041;-74
2021/07/22 08:49:55;;;;;;;17.38;9.00;;;22.40;65.10;;;;;;4970203;28;20026;-73
2021/07/22 08:52:21;;;;;;;14.02;7.80;;;22.50;63.90;;;;;;4974118;28;20165;-73
2021/07/22 08:54:47;;;;;;;17.30;8.35;;;22.60;65.30;;;;;;4971572;28;20061;-74
2021/07/22 08:57:16;;;;;;;14.70;8.55;;;22.60;64.40;;;;;;4972780;28;20671;-74
2021/07/22 08:59:43;;;;;;;13.20;8.07;;;22.70;65.60;;;;;;4979018;28;20027;-75
2021/07/22 09:02:15;;;;;;;14.13;7.85;;;22.80;64.30;;;;;;4974526;28;20116;-74
2021/07/22 09:04:51;;;;;;;15.10;7.57;;;23.00;63.90;;;;;;4983065;28;20121;-73
2021/07/22 09:07:19;;;;;;;15.50;7.45;;;23.00;64.00;;;;;;4982976;28;20525;-74
2021/07/22 09:10:08;;;;;;;13.05;7.32;;;23.20;65.20;;;;;;4978630;28;20559;-74
2021/07/22 09:12:45;;;;;;;13.32;7.95;;;23.20;61.90;;;;;;4979981;28;20512;-74
2021/07/22 09:15:23;;;;;;;18.75;8.30;;;23.30;62.60;;;;;;4978160;28;20046;-74
2021/07/22 09:17:48;;;;;;;14.25;7.88;;;23.30;64.00;;;;;;4980010;28;20054;-74
2021/07/22 09:20:25;;;;;;;11.57;7.32;;;23.40;63.30;;;;;;4979631;28;20034;-74
2021/07/22 09:22:50;;;;;;;13.60;7.50;;;23.50;63.50;;;;;;4981583;28;20030;-75
2021/07/22 09:25:18;;;;;;;14.20;7.95;;;23.50;61.10;;;;;;4979671;28;20046;-74
2021/07/22 09:27:45;;;;;;;12.73;6.97;;;23.50;59.20;;;;;;4983293;28;20030;-74
2021/07/22 09:30:11;;;;;;;11.35;6.78;;;23.40;60.30;;;;;;4977117;28;20026;-74
2021/07/22 09:32:40;;;;;;;13.15;7.15;;;23.50;59.40;;;;;;4983982;28;20119;-73
2021/07/22 09:35:09;;;;;;;10.73;6.93;;;23.50;60.80;;;;;;4981221;28;20105;-74
2021/07/22 09:37:59;;;;;;;12.27;7.45;;;23.60;58.70;;;;;;4978892;28;20021;-74
2021/07/22 09:40:25;;;;;;;13.02;7.32;;;23.60;58.50;;;;;;4979882;28;20027;-74
2021/07/22 09:42:55;;;;;;;11.15;6.53;;;23.80;58.80;;;;;;4976934;28;20042;-74
2021/07/22 09:45:30;;;;;;;11.25;7.30;;;24.00;58.80;;;;;;4978120;28;20042;-74
2021/07/22 09:48:06;;;;;;;8.45;6.05;;;24.20;58.50;;;;;;4976481;28;20057;-74
2021/07/22 09:50:43;;;;;;;10.27;6.45;;;24.20;56.30;;;;;;4974510;28;20018;-74
2021/07/22 09:53:13;;;;;;;14.80;7.28;;;24.20;57.70;;;;;;4979692;28;20029;-75
2021/07/22 09:55:43;;;;;;;13.00;7.78;;;24.30;58.00;;;;;;4983389;28;20097;-73
2021/07/22 09:58:11;;;;;;;13.35;7.70;;;24.40;55.80;;;;;;4980674;28;20027;-74
2021/07/22 10:00:47;;;;;;;11.63;6.57;;;24.40;56.40;;;;;;4976339;28;20525;-73
2021/07/22 10:03:15;;;;;;;10.52;6.53;;;24.50;56.70;;;;;;4975821;28;20046;-74
2021/07/22 10:05:50;;;;;;;12.95;6.72;;;24.50;55.60;;;;;;4985260;28;20031;-75
2021/07/22 10:08:18;;;;;;;12.82;7.25;;;24.40;54.50;;;;;;4977454;28;20081;-72
2021/07/22 10:10:50;;;;;;;11.70;6.82;;;24.20;57.00;;;;;;4983715;28;20026;-74
2021/07/22 10:13:16;;;;;;;11.02;8.18;;;24.20;55.90;;;;;;4984350;28;20033;-74
2021/07/22 10:15:45;;;;;;;13.60;7.15;;;24.30;57.90;;;;;;4980440;28;20032;-74
2021/07/22 10:18:10;;;;;;;11.70;7.22;;;24.40;54.70;;;;;;4978086;28;20527;-74
2021/07/22 10:20:43;;;;;;;11.48;7.15;;;24.30;56.40;;;;;;4981590;28;20034;-75
2021/07/22 10:23:12;;;;;;;9.77;6.28;;;24.30;55.70;;;;;;4975123;28;20118;-75
2021/07/22 10:25:38;;;;;;;11.55;7.10;;;24.40;55.70;;;;;;5000070;28;20027;-74
2021/07/22 10:28:04;;;;;;;10.63;7.03;;;24.60;54.60;;;;;;4981965;28;20113;-74
2021/07/22 10:30:30;;;;;;;11.60;6.78;;;24.70;53.60;;;;;;4981526;28;20541;-75
2021/07/22 10:32:59;;;;;;;10.85;6.72;;;24.60;53.50;;;;;;4991971;28;20457;-74
2021/07/22 10:35:28;;;;;;;11.38;6.93;;;24.50;51.90;;;;;;4978980;28;20023;-74
2021/07/22 10:38:10;;;;;;;10.43;5.90;;;24.60;56.00;;;;;;4982380;28;20576;-74
2021/07/22 10:41:01;;;;;;;12.27;6.78;;;24.70;50.40;;;;;;4978241;28;20445;-74
2021/07/22 10:43:30;;;;;;;10.63;6.57;;;24.90;53.20;;;;;;4974045;28;20026;-75
2021/07/22 10:45:56;;;;;;;14.10;6.78;;;24.90;50.90;;;;;;4981741;28;20141;-74
2021/07/22 10:48:28;;;;;;;8.90;6.25;;;24.80;49.10;;;;;;4970737;28;20031;-74
2021/07/22 10:50:54;;;;;;;10.05;6.47;;;24.90;52.60;;;;;;4979662;28;20117;-75
2021/07/22 10:53:47;;;;;;;10.50;6.38;;;24.90;49.30;;;;;;4978437;28;20122;-73
2021/07/22 10:56:39;;;;;;;12.60;6.70;;;25.00;51.30;;;;;;4980169;28;20046;-74
2021/07/22 10:59:05;;;;;;;9.23;6.25;;;24.90;50.50;;;;;;4985968;28;20553;-73
2021/07/22 11:01:51;;;;;;;12.30;6.65;;;24.90;50.00;;;;;;4976578;28;20039;-73
2021/07/22 11:04:23;;;;;;;13.07;7.63;;;24.90;53.00;;;;;;4978083;28;20117;-73
2021/07/22 11:07:02;;;;;;;12.32;6.78;;;24.90;52.30;;;;;;4982309;28;20026;-74
2021/07/22 11:09:44;;;;;;;12.30;6.90;;;24.80;52.70;;;;;;4976444;28;20033;-74
2021/07/22 11:12:31;;;;;;;13.23;7.57;;;24.80;51.50;;;;;;4979382;28;20014;-73
2021/07/22 11:15:02;;;;;;;9.90;6.83;;;24.80;52.90;;;;;;4980807;28;20549;-74
2021/07/22 11:17:32;;;;;;;11.98;7.68;;;24.80;52.20;;;;;;4981793;28;20026;-73
2021/07/22 11:20:20;;;;;;;12.20;7.35;;;24.80;49.10;;;;;;4981247;28;20018;-74
2021/07/22 11:22:50;;;;;;;12.32;7.20;;;24.80;51.20;;;;;;4978892;28;20027;-74
2021/07/22 11:25:18;;;;;;;13.45;7.57;;;24.70;51.20;;;;;;4975131;28;20038;-74
2021/07/22 11:27:48;;;;;;;13.35;7.57;;;24.90;52.30;;;;;;4979164;28;20023;-75
2021/07/22 11:30:16;;;;;;;11.98;7.05;;;25.10;51.90;;;;;;4976791;28;23232;-75
2021/07/22 11:32:42;;;;;;;;;;;25.10;52.40;;;;;;4979079;28;20829;-74
2021/07/22 11:35:08;;;;;;;10.77;6.70;;;25.10;50.00;;;;;;4983922;28;19909;-74
2021/07/22 11:37:34;;;;;;;13.55;7.82;;;25.00;51.10;;;;;;4976095;28;20618;-75
2021/07/22 11:40:06;;;;;;;12.77;6.97;;;25.10;53.90;;;;;;4977057;28;20022;-73
2021/07/22 11:42:33;;;;;;;10.77;7.38;;;24.90;52.50;;;;;;4974077;28;20113;-74
2021/07/22 11:45:03;;;;;;;12.07;7.40;;;24.90;54.60;;;;;;4978795;28;20516;-75
2021/07/22 11:47:33;;;;;;;11.07;6.97;;;24.90;54.00;;;;;;4976925;28;20027;-74
2021/07/22 11:50:02;;;;;;;12.20;7.35;;;24.90;53.20;;;;;;4980481;28;20153;-74
2021/07/22 11:52:30;;;;;;;11.65;7.05;;;24.80;51.60;;;;;;4974687;28;20050;-75
2021/07/22 11:55:03;;;;;;;;;;;24.90;50.80;;;;;;4977994;28;20041;-75
2021/07/22 11:57:40;;;;;;;12.40;6.35;;;24.90;51.10;;;;;;4974236;28;20048;-74
2021/07/22 12:00:12;;;;;;;;;;;24.90;53.10;;;;;;4980618;28;20030;-74
2021/07/22 12:02:43;;;;;;;11.63;7.22;;;24.80;52.10;;;;;;4976432;28;19914;-74
2021/07/22 12:05:10;;;;;;;10.95;6.93;;;24.80;53.60;;;;;;4983104;28;20116;-75
2021/07/22 12:07:36;;;;;;;10.48;6.43;;;24.90;53.20;;;;;;4977032;28;20042;-74
2021/07/22 12:10:03;;;;;;;14.43;7.00;;;24.90;52.20;;;;;;4982554;28;20046;-75
2021/07/22 12:12:29;;;;;;;12.48;7.00;;;24.90;52.00;;;;;;4979525;28;20045;-74
2021/07/22 12:15:06;;;;;;;12.65;7.05;;;25.00;48.70;;;;;;4978269;28;20026;-74
2021/07/22 12:17:36;;;;;;;11.98;7.30;;;25.10;51.70;;;;;;4976231;28;20019;-75
2021/07/22 12:20:03;;;;;;;10.75;7.25;;;25.20;52.80;;;;;;4978134;28;20045;-75
2021/07/22 12:22:37;;;;;;;10.20;7.03;;;25.40;51.50;;;;;;4979902;28;20112;-74
2021/07/22 12:25:02;;;;;;;12.88;7.07;;;25.40;50.70;;;;;;4980708;28;20376;-74
2021/07/22 12:27:31;;;;;;;11.20;6.93;;;25.30;52.40;;;;;;4978782;28;20023;-74
2021/07/22 12:30:05;;;;;;;11.57;7.18;;;25.20;51.40;;;;;;4976157;28;21013;-74
2021/07/22 12:32:31;;;;;;;10.50;7.43;;;25.30;51.00;;;;;;4979107;28;20118;-75
2021/07/22 12:34:58;;;;;;;11.88;7.47;;;25.20;50.20;;;;;;4977958;28;20033;-75
2021/07/22 12:37:59;;;;;;;10.73;7.07;;;25.20;50.30;;;;;;4975140;28;20080;-74
2021/07/22 12:40:43;;;;;;;11.82;6.80;;;25.40;54.30;;;;;;4978803;28;20065;-74
2021/07/22 12:43:20;;;;;;;11.20;7.22;;;25.60;50.90;;;;;;4980700;28;20089;-75